Time;durP1;ratioP1;P1;durP2;ratioP2;P2;SDS_P1;SDS_P2;PMS_P1;PMS_P2;Temp;Humidity;BMP_temperature;BMP_pressure;BME280_temperature;BME280_humidity;BME280_pressure;Samples;Min_cycle;Max_cycle;Signal;HPM_P1;HPM_P2
2021/06/13 00:01:58;;;;;;;4.22;3.38;;;25.50;54.10;;;;;;5038058;28;20127;-36
2021/06/13 00:04:24;;;;;;;3.83;3.50;;;25.50;53.50;;;;;;5034135;28;20502;-35
2021/06/13 00:06:53;;;;;;;3.35;3.15;;;25.40;53.80;;;;;;5038702;28;20040;-36
2021/06/13 00:09:22;;;;;;;3.90;3.20;;;25.40;53.60;;;;;;5037024;28;20116;-36
2021/06/13 00:11:47;;;;;;;3.90;3.40;;;25.40;53.50;;;;;;5037832;28;20044;-36
2021/06/13 00:14:13;;;;;;;3.20;3.00;;;25.50;53.40;;;;;;5036214;28;20025;-38
2021/06/13 00:16:39;;;;;;;3.53;3.22;;;25.40;53.40;;;;;;5039348;28;20029;-42
2021/06/13 00:19:04;;;;;;;3.67;3.38;;;25.50;53.50;;;;;;5034808;28;20017;-36
2021/06/13 00:21:30;;;;;;;3.78;3.47;;;25.40;53.40;;;;;;5048068;28;20124;-37
2021/06/13 00:23:55;;;;;;;4.07;3.00;;;25.30;53.70;;;;;;5041264;28;20399;-37
2021/06/13 00:26:21;;;;;;;3.80;3.50;;;25.30;53.70;;;;;;5037578;28;20028;-37
2021/06/13 00:28:47;;;;;;;3.78;3.47;;;25.20;53.80;;;;;;5047505;28;20478;-38
2021/06/13 00:31:12;;;;;;;3.42;3.13;;;25.20;53.80;;;;;;5031685;28;20033;-37
2021/06/13 00:33:38;;;;;;;3.95;3.55;;;25.20;53.80;;;;;;5038306;28;20009;-38
2021/06/13 00:36:04;;;;;;;3.10;2.80;;;25.20;53.80;;;;;;5037647;28;20040;-37
2021/06/13 00:38:29;;;;;;;3.58;3.20;;;25.20;54.00;;;;;;5038102;28;20032;-36
2021/06/13 00:40:55;;;;;;;3.53;3.20;;;25.10;54.00;;;;;;5047911;28;20025;-38
2021/06/13 00:43:21;;;;;;;3.70;3.45;;;25.10;54.10;;;;;;5032867;28;20116;-38
2021/06/13 00:45:46;;;;;;;3.25;2.95;;;25.10;54.10;;;;;;5037837;28;20414;-37
2021/06/13 00:48:12;;;;;;;3.85;3.20;;;25.10;54.20;;;;;;5044067;28;20025;-37
2021/06/13 00:50:47;;;;;;;3.47;3.17;;;25.10;54.10;;;;;;5042845;28;20021;-37
2021/06/13 00:53:12;;;;;;;3.88;3.55;;;25.00;54.20;;;;;;5036635;28;20029;-36
2021/06/13 00:55:38;;;;;;;3.60;3.40;;;25.00;54.10;;;;;;5033713;28;20048;-37
2021/06/13 00:58:04;;;;;;;3.50;3.20;;;25.10;54.00;;;;;;5034652;28;20025;-37
2021/06/13 01:00:30;;;;;;;3.65;3.35;;;25.10;54.00;;;;;;5047462;28;20029;-36
2021/06/13 01:02:56;;;;;;;3.50;3.30;;;25.00;54.10;;;;;;5040207;28;20045;-37
2021/06/13 01:05:21;;;;;;;3.45;3.15;;;25.10;53.90;;;;;;5036534;28;20025;-37
2021/06/13 01:08:08;;;;;;;3.35;3.15;;;25.10;53.90;;;;;;5035121;28;20061;-36
2021/06/13 01:10:56;;;;;;;3.50;3.20;;;25.10;54.00;;;;;;4989191;28;20074;-37
2021/06/13 01:13:48;;;;;;;4.00;3.10;;;24.90;54.10;;;;;;4975999;28;20146;-37
2021/06/13 01:16:23;;;;;;;3.38;3.15;;;24.90;54.30;;;;;;4987667;28;20097;-37
2021/06/13 01:18:54;;;;;;;3.20;3.00;;;24.90;54.40;;;;;;4991058;28;20502;-37
2021/06/13 01:21:23;;;;;;;3.90;3.33;;;24.90;54.40;;;;;;4946143;28;20050;-37
2021/06/13 01:24:03;;;;;;;3.42;2.75;;;24.90;54.40;;;;;;4966391;28;20038;-37
2021/06/13 01:26:53;;;;;;;3.92;3.63;;;24.90;54.40;;;;;;4988969;28;20109;-36
2021/06/13 01:29:22;;;;;;;3.47;3.25;;;24.80;54.30;;;;;;4988583;28;20053;-37
2021/06/13 01:31:54;;;;;;;3.40;3.10;;;24.90;54.40;;;;;;4972093;28;20045;-37
2021/06/13 01:34:23;;;;;;;3.78;3.53;;;24.90;54.30;;;;;;4973107;28;20449;-37
2021/06/13 01:36:49;;;;;;;3.45;3.22;;;24.80;54.40;;;;;;4976348;28;20034;-39
2021/06/13 01:39:18;;;;;;;3.28;3.08;;;24.70;54.50;;;;;;4970493;28;20038;-39
2021/06/13 01:41:44;;;;;;;3.42;3.22;;;24.70;54.60;;;;;;4972796;28;20058;-42
2021/06/13 01:44:09;;;;;;;3.67;3.38;;;24.70;54.60;;;;;;4972353;28;20057;-42
2021/06/13 01:46:36;;;;;;;3.60;3.28;;;24.70;54.50;;;;;;4959259;28;20540;-42
2021/06/13 01:49:02;;;;;;;3.70;3.38;;;24.70;54.40;;;;;;5062831;28;20070;-42
2021/06/13 01:51:28;;;;;;;3.40;3.17;;;24.80;54.40;;;;;;5035896;28;20449;-42
2021/06/13 01:53:53;;;;;;;3.40;3.20;;;24.80;54.30;;;;;;5021352;28;20038;-42
2021/06/13 01:56:19;;;;;;;3.28;2.97;;;24.80;54.20;;;;;;5018903;28;20040;-42
2021/06/13 01:58:46;;;;;;;2.88;2.67;;;24.80;54.20;;;;;;5045706;28;20017;-42
2021/06/13 02:01:13;;;;;;;3.75;3.08;;;24.70;54.30;;;;;;5047192;28;20518;-41
2021/06/13 02:03:42;;;;;;;3.10;2.80;;;24.70;54.40;;;;;;5036679;28;20033;-41
2021/06/13 02:06:07;;;;;;;3.50;3.30;;;24.70;54.40;;;;;;5019404;28;20032;-42
2021/06/13 02:08:33;;;;;;;3.30;3.10;;;24.70;54.30;;;;;;5020696;28;20025;-42
2021/06/13 02:10:59;;;;;;;3.75;3.45;;;24.70;54.40;;;;;;5059000;28;20046;-42
2021/06/13 02:13:26;;;;;;;3.25;3.05;;;24.70;54.40;;;;;;5045961;28;20033;-42
2021/06/13 02:15:53;;;;;;;3.30;3.10;;;24.70;54.40;;;;;;5039220;28;20040;-42
2021/06/13 02:18:19;;;;;;;3.25;2.95;;;24.60;54.70;;;;;;5036951;28;20036;-42
2021/06/13 02:20:45;;;;;;;3.83;3.53;;;24.50;54.70;;;;;;5021622;28;20399;-42
2021/06/13 02:23:10;;;;;;;3.53;3.33;;;24.50;54.90;;;;;;5043301;28;20104;-42
2021/06/13 02:25:36;;;;;;;4.13;3.83;;;24.60;54.70;;;;;;5045912;28;20022;-41
2021/06/13 02:28:02;;;;;;;3.70;3.40;;;24.50;54.70;;;;;;5033949;28;20055;-40
2021/06/13 02:30:31;;;;;;;4.05;3.30;;;24.60;54.40;;;;;;5036585;28;20048;-40
2021/06/13 02:32:57;;;;;;;3.03;2.83;;;24.60;54.40;;;;;;5024205;28;20479;-41
2021/06/13 02:35:23;;;;;;;3.63;3.40;;;24.70;54.80;;;;;;5058384;28;20509;-41
2021/06/13 02:37:49;;;;;;;3.80;3.60;;;24.70;54.80;;;;;;5062448;28;20038;-41
2021/06/13 02:40:15;;;;;;;3.25;3.00;;;24.70;54.80;;;;;;5042533;28;20021;-41
2021/06/13 02:42:40;;;;;;;3.33;3.13;;;24.90;53.80;;;;;;5039834;28;20583;-41
2021/06/13 02:45:10;;;;;;;3.42;3.22;;;24.90;53.80;;;;;;5045445;28;20021;-40
2021/06/13 02:47:36;;;;;;;4.00;3.08;;;24.80;53.90;;;;;;5047654;28;20029;-37
2021/06/13 02:50:04;;;;;;;4.10;3.80;;;24.80;54.50;;;;;;5047319;28;20022;-37
2021/06/13 02:52:49;;;;;;;3.08;2.88;;;24.90;53.80;;;;;;5067674;28;20017;-37
2021/06/13 02:55:27;;;;;;;3.35;3.08;;;24.90;53.70;;;;;;5047934;28;20028;-37
2021/06/13 02:57:56;;;;;;;3.47;3.17;;;24.80;53.80;;;;;;5039870;28;20025;-37
2021/06/13 03:00:23;;;;;;;3.35;3.15;;;24.90;53.60;;;;;;5030861;28;20372;-37
2021/06/13 03:02:50;;;;;;;3.03;2.83;;;24.90;53.50;;;;;;5046904;28;20049;-37
2021/06/13 03:05:16;;;;;;;3.25;2.95;;;25.00;53.50;;;;;;5063453;28;20024;-37
2021/06/13 03:07:42;;;;;;;3.45;3.25;;;24.80;53.70;;;;;;5036813;28;20418;-37
2021/06/13 03:10:09;;;;;;;3.25;3.05;;;24.70;53.90;;;;;;5052164;28;20052;-37
2021/06/13 03:12:34;;;;;;;3.53;3.25;;;24.70;53.90;;;;;;5055066;28;20033;-37
2021/06/13 03:15:00;;;;;;;3.13;2.80;;;24.70;54.00;;;;;;5028259;28;20021;-37
2021/06/13 03:17:26;;;;;;;3.65;3.35;;;24.60;54.20;;;;;;5046582;28;20075;-37
2021/06/13 03:19:51;;;;;;;3.58;3.28;;;24.70;54.10;;;;;;5063311;28;20024;-37
2021/06/13 03:22:17;;;;;;;3.83;3.53;;;24.60;54.10;;;;;;5065533;28;20410;-38
2021/06/13 03:24:44;;;;;;;3.45;3.25;;;24.70;54.00;;;;;;5038229;28;20065;-38
2021/06/13 03:27:10;;;;;;;3.42;3.20;;;24.60;54.00;;;;;;5028869;28;20380;-37
2021/06/13 03:29:40;;;;;;;3.67;3.38;;;24.70;54.00;;;;;;5062134;28;20112;-37
2021/06/13 03:32:07;;;;;;;3.60;3.30;;;24.80;53.90;;;;;;5048812;28;20112;-37
2021/06/13 03:34:33;;;;;;;3.63;3.40;;;24.70;53.90;;;;;;5018393;28;20045;-37
2021/06/13 03:36:58;;;;;;;3.15;2.90;;;24.70;53.90;;;;;;5049705;28;20155;-37
2021/06/13 03:39:24;;;;;;;3.20;3.00;;;24.60;54.00;;;;;;5046687;28;20040;-37
2021/06/13 03:41:49;;;;;;;3.50;3.20;;;24.50;54.10;;;;;;5018009;28;20029;-37
2021/06/13 03:44:15;;;;;;;3.63;3.40;;;24.40;54.40;;;;;;5061563;28;20029;-37
2021/06/13 03:46:41;;;;;;;3.58;3.28;;;24.40;54.40;;;;;;5049797;28;20078;-37
2021/06/13 03:49:06;;;;;;;4.15;2.92;;;24.50;54.40;;;;;;5065007;28;20032;-37
2021/06/13 03:51:32;;;;;;;3.20;3.00;;;24.40;54.40;;;;;;5023170;28;20399;-37
2021/06/13 03:53:58;;;;;;;3.35;3.15;;;24.40;54.60;;;;;;5042649;28;20060;-37
2021/06/13 03:56:48;;;;;;;3.13;2.85;;;24.40;54.30;;;;;;5061977;28;20566;-36
2021/06/13 03:59:16;;;;;;;3.15;2.95;;;24.40;54.30;;;;;;5026589;28;20490;-37
2021/06/13 04:01:42;;;;;;;2.90;2.70;;;24.50;54.20;;;;;;5018898;28;20045;-36
2021/06/13 04:04:07;;;;;;;3.40;3.10;;;24.50;54.10;;;;;;5047795;28;20091;-37
2021/06/13 04:06:33;;;;;;;2.65;2.55;;;24.40;54.10;;;;;;5039556;28;20130;-37
2021/06/13 04:08:58;;;;;;;2.67;2.55;;;24.50;54.10;;;;;;5037414;28;20075;-38
2021/06/13 04:11:24;;;;;;;3.10;2.90;;;24.60;54.00;;;;;;5022606;28;20029;-37
2021/06/13 04:13:50;;;;;;;3.03;2.83;;;24.50;53.90;;;;;;5018358;28;20091;-37
2021/06/13 04:16:16;;;;;;;2.75;2.65;;;24.50;54.00;;;;;;5049655;28;20017;-37
2021/06/13 04:18:42;;;;;;;3.05;2.85;;;24.50;54.00;;;;;;5038252;28;20029;-38
2021/06/13 04:21:11;;;;;;;3.10;2.90;;;24.50;54.10;;;;;;5043690;28;20035;-37
2021/06/13 04:23:42;;;;;;;3.28;2.97;;;24.50;54.00;;;;;;5044322;28;20037;-38
2021/06/13 04:26:08;;;;;;;3.22;3.03;;;24.50;54.10;;;;;;5037574;28;20021;-37
2021/06/13 04:28:33;;;;;;;4.65;3.25;;;24.40;54.10;;;;;;5017734;28;20734;-37
2021/06/13 04:31:02;;;;;;;3.10;2.90;;;24.40;54.00;;;;;;5049046;28;20025;-38
2021/06/13 04:33:29;;;;;;;3.10;2.90;;;24.40;54.00;;;;;;5038836;28;20030;-37
2021/06/13 04:35:55;;;;;;;2.75;2.53;;;24.50;53.80;;;;;;5025729;28;20071;-37
2021/06/13 04:38:21;;;;;;;3.17;2.88;;;24.40;54.00;;;;;;5045549;28;20399;-38
2021/06/13 04:40:46;;;;;;;3.20;2.88;;;24.40;53.90;;;;;;5048783;28;20033;-37
2021/06/13 04:43:12;;;;;;;3.08;2.88;;;24.40;54.00;;;;;;5035380;28;20507;-37
2021/06/13 04:45:37;;;;;;;2.90;2.70;;;24.30;54.10;;;;;;5037671;28;20053;-37
2021/06/13 04:48:06;;;;;;;2.90;2.70;;;24.30;54.10;;;;;;5042303;28;20485;-42
2021/06/13 04:50:33;;;;;;;2.80;2.60;;;24.30;54.20;;;;;;5045491;28;20028;-37
2021/06/13 04:52:59;;;;;;;3.33;3.13;;;24.40;54.00;;;;;;5064365;28;20021;-37
2021/06/13 04:55:45;;;;;;;3.38;3.10;;;24.30;54.10;;;;;;5048141;28;20033;-37
2021/06/13 04:58:21;;;;;;;2.80;2.70;;;24.30;54.20;;;;;;5047760;28;20048;-38
2021/06/13 05:00:46;;;;;;;2.92;2.75;;;24.30;54.10;;;;;;5052735;28;20541;-38
2021/06/13 05:03:12;;;;;;;3.17;2.88;;;24.40;53.90;;;;;;5036158;28;20045;-37
2021/06/13 05:05:38;;;;;;;3.08;2.78;;;24.40;53.90;;;;;;5036567;28;20381;-37
2021/06/13 05:08:04;;;;;;;3.00;2.80;;;24.50;53.90;;;;;;5034016;28;20029;-37
2021/06/13 05:10:29;;;;;;;3.00;2.80;;;24.40;54.50;;;;;;5049767;28;20050;-36
2021/06/13 05:12:55;;;;;;;2.90;2.70;;;24.30;54.00;;;;;;5063838;28;20096;-38
2021/06/13 05:15:21;;;;;;;2.83;2.63;;;24.30;54.10;;;;;;5036403;28;20040;-37
2021/06/13 05:17:47;;;;;;;2.55;2.42;;;24.30;54.00;;;;;;5041892;28;20065;-37
2021/06/13 05:20:13;;;;;;;3.10;2.90;;;24.40;53.90;;;;;;5035841;28;20048;-37
2021/06/13 05:22:58;;;;;;;2.80;2.70;;;24.40;53.80;;;;;;5033727;28;20033;-37
2021/06/13 05:25:27;;;;;;;3.35;2.60;;;24.30;53.90;;;;;;5031965;28;20021;-37
2021/06/13 05:27:53;;;;;;;2.80;2.60;;;24.30;53.90;;;;;;5037172;28;20018;-37
2021/06/13 05:30:19;;;;;;;2.75;2.55;;;24.30;53.90;;;;;;5043820;28;20036;-38
2021/06/13 05:32:45;;;;;;;2.70;2.50;;;24.40;53.90;;;;;;5041134;28;20085;-37
2021/06/13 05:35:11;;;;;;;2.80;2.60;;;24.40;53.80;;;;;;5036083;28;20037;-37
2021/06/13 05:37:36;;;;;;;3.45;2.55;;;24.30;53.80;;;;;;5032894;28;20031;-37
2021/06/13 05:40:07;;;;;;;3.15;2.95;;;24.20;53.90;;;;;;5045434;28;20024;-37
2021/06/13 05:42:32;;;;;;;2.53;2.42;;;24.20;54.20;;;;;;5046726;28;20033;-37
2021/06/13 05:44:58;;;;;;;2.45;2.35;;;24.20;54.10;;;;;;5039245;28;20037;-37
2021/06/13 05:47:23;;;;;;;3.20;3.00;;;24.20;54.20;;;;;;5035742;28;20040;-37
2021/06/13 05:49:49;;;;;;;3.30;3.10;;;24.20;54.10;;;;;;5038249;28;20017;-40
2021/06/13 05:52:14;;;;;;;2.88;2.67;;;24.20;54.00;;;;;;5047866;28;20021;-41
2021/06/13 05:54:40;;;;;;;2.58;2.45;;;24.30;54.10;;;;;;5055195;28;20036;-40
2021/06/13 05:57:06;;;;;;;2.90;2.70;;;24.20;54.10;;;;;;5046764;28;20094;-40
2021/06/13 05:59:32;;;;;;;2.80;2.60;;;24.30;54.00;;;;;;5048056;28;20564;-43
2021/06/13 06:01:57;;;;;;;2.83;2.63;;;24.30;53.90;;;;;;5046617;28;20032;-41
2021/06/13 06:04:23;;;;;;;3.67;2.78;;;24.40;53.90;;;;;;5049217;28;20116;-41
2021/06/13 06:06:48;;;;;;;3.00;2.70;;;24.40;53.90;;;;;;5051209;28;20060;-42
2021/06/13 06:09:14;;;;;;;2.58;2.47;;;24.40;53.90;;;;;;5047972;28;20128;-42
2021/06/13 06:11:42;;;;;;;2.70;2.50;;;24.30;54.00;;;;;;5046853;28;20044;-43
2021/06/13 06:14:11;;;;;;;3.10;2.90;;;24.40;53.90;;;;;;5047090;28;20120;-42
2021/06/13 06:16:37;;;;;;;3.30;3.10;;;24.50;53.70;;;;;;5049181;28;20120;-42
2021/06/13 06:19:03;;;;;;;2.05;1.95;;;24.40;53.90;;;;;;5051840;28;20112;-43
2021/06/13 06:21:28;;;;;;;2.88;2.67;;;24.50;53.70;;;;;;5036475;28;20029;-42
2021/06/13 06:23:54;;;;;;;3.38;3.03;;;24.40;53.70;;;;;;5035768;28;20037;-42
2021/06/13 06:26:20;;;;;;;2.70;2.60;;;24.50;53.90;;;;;;5035409;28;20124;-43
2021/06/13 06:28:45;;;;;;;2.63;2.50;;;24.50;53.60;;;;;;5032727;28;20124;-42
2021/06/13 06:31:11;;;;;;;3.00;2.80;;;24.60;53.40;;;;;;5047186;28;20104;-42
2021/06/13 06:33:37;;;;;;;2.83;2.70;;;24.60;53.40;;;;;;5036311;28;20030;-42
2021/06/13 06:36:03;;;;;;;2.83;2.63;;;24.60;53.60;;;;;;5035135;28;20024;-42
2021/06/13 06:38:30;;;;;;;2.97;2.78;;;24.60;53.70;;;;;;5034997;28;20113;-42
2021/06/13 06:40:58;;;;;;;3.10;2.97;;;24.50;53.90;;;;;;5045015;28;20033;-37
2021/06/13 06:43:23;;;;;;;2.67;2.55;;;24.60;53.90;;;;;;5031541;28;20068;-36
2021/06/13 06:45:49;;;;;;;2.70;2.50;;;24.60;53.70;;;;;;5036062;28;20045;-36
2021/06/13 06:48:15;;;;;;;3.60;3.40;;;24.60;54.60;;;;;;5042352;28;20379;-36
2021/06/13 06:50:40;;;;;;;2.72;2.53;;;24.60;54.30;;;;;;5041116;28;20025;-36
2021/06/13 06:53:06;;;;;;;3.05;2.85;;;24.40;54.50;;;;;;5034626;28;20025;-36
2021/06/13 06:55:31;;;;;;;3.17;2.88;;;24.40;54.60;;;;;;5031511;28;20516;-37
2021/06/13 06:57:58;;;;;;;2.78;2.60;;;24.40;54.40;;;;;;5035753;28;20038;-36
2021/06/13 07:00:23;;;;;;;2.90;2.70;;;24.30;54.80;;;;;;5034661;28;20061;-36
2021/06/13 07:02:49;;;;;;;3.60;2.92;;;24.20;55.40;;;;;;5038402;28;20061;-36
2021/06/13 07:05:15;;;;;;;3.05;2.95;;;24.20;55.20;;;;;;5044557;28;20517;-36
2021/06/13 07:07:42;;;;;;;3.25;3.05;;;24.30;55.20;;;;;;5032028;28;20454;-36
2021/06/13 07:10:08;;;;;;;3.03;2.83;;;24.30;55.00;;;;;;5032309;28;20055;-37
2021/06/13 07:12:34;;;;;;;2.90;2.70;;;24.40;54.70;;;;;;5045598;28;20075;-37
2021/06/13 07:15:00;;;;;;;2.80;2.60;;;24.40;54.70;;;;;;5038982;28;20029;-36
2021/06/13 07:17:26;;;;;;;2.72;2.53;;;24.40;54.70;;;;;;5040455;28;20033;-37
2021/06/13 07:19:51;;;;;;;3.35;3.15;;;24.50;54.60;;;;;;5033748;28;20029;-38
2021/06/13 07:22:17;;;;;;;3.20;3.00;;;24.50;54.60;;;;;;5032276;28;20034;-37
2021/06/13 07:24:42;;;;;;;3.42;3.15;;;24.40;54.90;;;;;;5035397;28;20827;-37
2021/06/13 07:27:08;;;;;;;3.47;3.28;;;24.40;54.90;;;;;;5045092;28;20037;-36
2021/06/13 07:29:34;;;;;;;3.30;3.00;;;24.50;54.90;;;;;;5049237;28;20029;-41
2021/06/13 07:31:59;;;;;;;7.60;2.70;;;24.60;54.50;;;;;;5050725;28;20091;-41
2021/06/13 07:34:25;;;;;;;3.20;3.00;;;24.40;54.90;;;;;;5039066;28;20399;-41
2021/06/13 07:36:50;;;;;;;3.22;2.90;;;24.60;54.80;;;;;;5054401;28;20029;-42
2021/06/13 07:39:16;;;;;;;3.90;3.20;;;24.70;54.50;;;;;;5050174;28;20116;-41
2021/06/13 07:41:41;;;;;;;2.92;2.83;;;24.60;55.00;;;;;;5054745;28;20116;-41
2021/06/13 07:44:07;;;;;;;3.40;3.20;;;24.60;55.20;;;;;;5054234;28;20025;-42
2021/06/13 07:46:34;;;;;;;4.90;2.92;;;24.60;55.40;;;;;;5053578;28;20483;-41
2021/06/13 07:48:59;;;;;;;2.97;2.65;;;24.60;55.80;;;;;;5064932;28;20020;-43
2021/06/13 07:51:25;;;;;;;3.97;3.33;;;24.60;55.60;;;;;;5054227;28;20417;-41
2021/06/13 07:53:50;;;;;;;2.90;2.70;;;24.40;55.80;;;;;;5053753;28;20147;-43
2021/06/13 07:56:16;;;;;;;3.10;3.00;;;24.30;56.10;;;;;;5060299;28;20096;-41
2021/06/13 07:58:42;;;;;;;3.33;2.95;;;24.40;56.10;;;;;;5057466;28;20033;-38
2021/06/13 08:01:07;;;;;;;3.65;2.67;;;24.30;56.10;;;;;;5065674;28;20085;-36
2021/06/13 08:03:33;;;;;;;2.90;2.80;;;24.30;56.10;;;;;;5052486;28;20031;-47
2021/06/13 08:05:58;;;;;;;3.03;2.72;;;24.30;56.20;;;;;;5038893;28;20037;-43
2021/06/13 08:08:24;;;;;;;2.85;2.67;;;24.50;56.10;;;;;;5052340;28;20483;-40
2021/06/13 08:10:49;;;;;;;3.10;2.80;;;24.50;56.00;;;;;;5057749;28;20049;-42
2021/06/13 08:13:16;;;;;;;2.88;2.58;;;24.50;55.90;;;;;;5058837;28;20495;-40
2021/06/13 08:15:42;;;;;;;2.80;2.60;;;24.60;55.70;;;;;;5058482;28;20041;-41
2021/06/13 08:18:07;;;;;;;2.85;2.75;;;24.70;55.40;;;;;;5062520;28;20028;-41
2021/06/13 08:20:34;;;;;;;2.85;2.55;;;24.60;55.50;;;;;;5058044;28;20029;-41
2021/06/13 08:23:00;;;;;;;2.88;2.67;;;24.60;55.50;;;;;;5061766;28;21033;-42
2021/06/13 08:25:25;;;;;;;2.45;2.25;;;24.70;55.60;;;;;;5050932;28;20025;-42
2021/06/13 08:27:51;;;;;;;2.75;2.50;;;24.80;55.50;;;;;;5061920;28;20075;-35
2021/06/13 08:30:17;;;;;;;2.33;2.22;;;24.80;55.50;;;;;;5057949;28;20064;-38
2021/06/13 08:32:43;;;;;;;2.20;2.10;;;24.90;55.40;;;;;;5058290;28;20028;-42
2021/06/13 08:35:09;;;;;;;2.92;2.72;;;24.90;55.20;;;;;;5058874;28;20028;-48
2021/06/13 08:37:35;;;;;;;2.78;2.60;;;25.00;55.10;;;;;;5069450;28;20121;-43
2021/06/13 08:40:00;;;;;;;2.55;2.45;;;25.10;55.00;;;;;;5059009;28;20060;-48
2021/06/13 08:42:26;;;;;;;2.75;2.30;;;25.10;54.90;;;;;;5056744;28;20072;-44
2021/06/13 08:44:52;;;;;;;2.80;2.63;;;25.30;54.50;;;;;;5054487;28;20521;-47
2021/06/13 08:47:19;;;;;;;3.10;2.90;;;25.30;54.60;;;;;;5041568;28;20021;-43
2021/06/13 08:49:46;;;;;;;2.60;2.50;;;25.40;55.00;;;;;;5055077;28;20064;-48
2021/06/13 08:52:12;;;;;;;2.67;2.50;;;25.70;53.90;;;;;;5040740;28;20067;-44
2021/06/13 08:54:38;;;;;;;2.58;2.47;;;25.70;53.80;;;;;;5049877;28;20020;-43
2021/06/13 08:57:05;;;;;;;2.72;2.60;;;25.60;54.00;;;;;;5047567;28;20083;-40
2021/06/13 08:59:30;;;;;;;2.85;2.63;;;25.80;53.90;;;;;;5055189;28;20036;-44
2021/06/13 09:01:57;;;;;;;3.25;3.05;;;25.90;53.40;;;;;;5049876;28;20037;-44
2021/06/13 09:04:22;;;;;;;2.53;2.38;;;25.90;53.20;;;;;;5049402;28;20030;-44
2021/06/13 09:06:50;;;;;;;2.92;2.72;;;26.00;53.10;;;;;;5067089;28;20384;-43
2021/06/13 09:09:17;;;;;;;3.10;2.90;;;26.00;53.00;;;;;;5044895;28;20048;-45
2021/06/13 09:11:56;;;;;;;3.20;3.00;;;26.10;53.30;;;;;;5019566;28;20501;-43
2021/06/13 09:14:21;;;;;;;3.03;2.85;;;26.00;53.30;;;;;;5024506;28;20410;-42
2021/06/13 09:16:47;;;;;;;2.90;2.70;;;25.90;53.40;;;;;;5051885;28;20028;-43
2021/06/13 09:19:13;;;;;;;3.05;2.80;;;26.00;53.30;;;;;;5051477;28;20017;-41
2021/06/13 09:21:39;;;;;;;2.97;2.85;;;26.00;53.30;;;;;;5054260;28;20033;-42
2021/06/13 09:24:25;;;;;;;2.78;2.67;;;26.10;52.90;;;;;;5033510;28;20505;-43
2021/06/13 09:26:54;;;;;;;3.00;2.90;;;26.20;52.80;;;;;;5049571;28;20021;-42
2021/06/13 09:29:20;;;;;;;3.28;3.08;;;26.30;52.70;;;;;;5052978;28;20025;-43
2021/06/13 09:31:47;;;;;;;3.28;2.97;;;26.30;53.40;;;;;;5055088;28;20376;-42
2021/06/13 09:34:17;;;;;;;3.10;3.00;;;26.30;52.70;;;;;;5050843;28;20066;-45
2021/06/13 09:36:42;;;;;;;3.10;3.00;;;26.40;52.70;;;;;;5050107;28;20079;-46
2021/06/13 09:39:10;;;;;;;3.17;3.03;;;26.40;52.70;;;;;;5045670;28;20025;-54
2021/06/13 09:41:37;;;;;;;3.22;3.13;;;26.30;53.30;;;;;;4698730;28;9999957;-44
2021/06/13 09:44:04;;;;;;;3.00;2.90;;;26.10;53.50;;;;;;5038899;28;20021;-43
2021/06/13 09:46:32;;;;;;;3.30;3.15;;;26.10;53.50;;;;;;5047486;28;20021;-45
2021/06/13 09:49:04;;;;;;;3.05;2.95;;;26.20;53.70;;;;;;5043892;28;20491;-43
2021/06/13 09:51:34;;;;;;;3.40;3.20;;;26.10;54.30;;;;;;5052870;28;20477;-43
2021/06/13 09:54:01;;;;;;;3.10;2.90;;;25.90;54.60;;;;;;5056034;28;20083;-47
2021/06/13 09:56:30;;;;;;;3.65;3.45;;;25.90;54.70;;;;;;5053265;28;20016;-51
2021/06/13 09:59:15;;;;;;;3.67;3.47;;;25.90;54.60;;;;;;5050595;28;20056;-46
2021/06/13 10:01:43;;;;;;;3.63;3.42;;;25.90;54.60;;;;;;5035477;28;20522;-43
2021/06/13 10:04:30;;;;;;;3.95;3.75;;;25.80;54.90;;;;;;5053938;28;20086;-50
2021/06/13 10:06:57;;;;;;;3.25;3.05;;;25.60;55.40;;;;;;5037245;28;20502;-42
2021/06/13 10:09:34;;;;;;;3.60;3.40;;;25.70;55.10;;;;;;5049397;28;20048;-42
2021/06/13 10:12:04;;;;;;;3.47;3.28;;;25.90;54.50;;;;;;5046009;28;20099;-40
2021/06/13 10:14:29;;;;;;;3.78;3.58;;;26.10;54.30;;;;;;5045847;28;20025;-40
2021/06/13 10:16:55;;;;;;;12.57;7.55;;;26.10;54.10;;;;;;5022831;28;20031;-42
2021/06/13 10:19:21;;;;;;;18.83;8.27;;;26.10;54.40;;;;;;5052738;28;20033;-40
2021/06/13 10:21:58;;;;;;;19.67;9.68;;;26.10;54.10;;;;;;5052756;28;20115;-43
2021/06/13 10:24:25;;;;;;;53.17;17.20;;;26.30;53.50;;;;;;5051429;28;20178;-42
2021/06/13 10:26:55;;;;;;;99.60;29.42;;;26.40;53.30;;;;;;5030633;28;20566;-42
2021/06/13 10:29:21;;;;;;;81.93;26.60;;;26.20;53.90;;;;;;5051280;28;20402;-43
2021/06/13 10:31:49;;;;;;;78.35;29.48;;;26.30;53.80;;;;;;5019073;28;20043;-42
2021/06/13 10:34:15;;;;;;;100.05;32.03;;;26.40;53.60;;;;;;5049390;28;20151;-42
2021/06/13 10:36:41;;;;;;;70.55;24.00;;;26.40;53.90;;;;;;5054010;28;20129;-43
2021/06/13 10:39:13;;;;;;;60.00;21.55;;;26.40;53.90;;;;;;5048707;28;20072;-42
2021/06/13 10:41:38;;;;;;;52.33;19.98;;;26.60;53.30;;;;;;5047803;28;20133;-42
2021/06/13 10:44:24;;;;;;;50.58;19.02;;;26.60;53.50;;;;;;5048182;28;20059;-42
2021/06/13 10:46:51;;;;;;;49.80;19.27;;;26.40;53.70;;;;;;5047779;28;20029;-42
2021/06/13 10:49:27;;;;;;;41.15;17.45;;;26.30;54.00;;;;;;5032128;28;20033;-43
2021/06/13 10:52:06;;;;;;;28.40;13.57;;;26.20;54.10;;;;;;5056202;28;20032;-42
2021/06/13 10:54:52;;;;;;;29.08;13.82;;;26.20;54.00;;;;;;5053867;28;20511;-42
2021/06/13 10:57:18;;;;;;;25.08;12.30;;;26.50;53.40;;;;;;5030098;28;20503;-43
2021/06/13 10:59:50;;;;;;;27.42;12.80;;;26.50;53.20;;;;;;5051299;28;20031;-45
2021/06/13 11:02:19;;;;;;;22.48;10.55;;;26.50;53.80;;;;;;5051079;28;20033;-44
2021/06/13 11:04:51;;;;;;;21.42;11.38;;;26.60;52.80;;;;;;5062717;28;20025;-43
2021/06/13 11:10:06;;;;;;;21.45;9.82;;;26.60;52.80;;;;;;5058749;28;20457;-44
2021/06/13 11:12:49;;;;;;;12.07;7.88;;;26.60;52.90;;;;;;5057228;28;20395;-45
2021/06/13 11:18:23;;;;;;;9.35;6.75;;;26.50;53.20;;;;;;5043196;28;20122;-43
2021/06/13 11:20:50;;;;;;;10.60;7.40;;;26.70;52.90;;;;;;5045376;28;20128;-48
2021/06/13 11:23:23;;;;;;;8.98;7.07;;;26.70;52.60;;;;;;5046889;28;20502;-49
2021/06/13 11:25:54;;;;;;;10.75;7.20;;;26.90;52.50;;;;;;5049902;28;20495;-42
2021/06/13 11:28:28;;;;;;;8.75;6.28;;;26.80;52.30;;;;;;5050909;28;20043;-42
2021/06/13 11:30:56;;;;;;;6.90;5.82;;;26.60;52.80;;;;;;5052701;28;20013;-42
2021/06/13 11:33:39;;;;;;;11.82;6.90;;;26.50;52.90;;;;;;5044654;28;20049;-42
2021/06/13 11:36:17;;;;;;;7.45;6.00;;;26.50;53.00;;;;;;5066115;28;20073;-43
2021/06/13 11:38:49;;;;;;;8.02;5.93;;;26.50;53.10;;;;;;5044118;28;20075;-41
2021/06/13 11:41:27;;;;;;;7.32;5.30;;;26.60;53.00;;;;;;5052230;28;20481;-42
2021/06/13 11:43:54;;;;;;;7.30;5.65;;;26.40;53.00;;;;;;5040403;28;20034;-41
2021/06/13 11:46:40;;;;;;;5.68;5.13;;;26.20;53.80;;;;;;5046981;28;20021;-42
2021/06/13 11:49:13;;;;;;;6.50;5.30;;;26.40;53.30;;;;;;5031613;28;20024;-41
2021/06/13 11:51:53;;;;;;;6.85;5.13;;;26.40;53.20;;;;;;5051410;28;20033;-41
2021/06/13 11:54:30;;;;;;;5.32;4.82;;;26.20;53.70;;;;;;5053441;28;20029;-42
2021/06/13 11:56:57;;;;;;;5.80;5.20;;;26.20;53.80;;;;;;5028580;28;20082;-41
2021/06/13 11:59:24;;;;;;;6.85;4.85;;;25.90;54.40;;;;;;5050649;28;21454;-44
2021/06/13 12:01:59;;;;;;;5.43;4.93;;;26.10;53.80;;;;;;5046926;28;20529;-41
2021/06/13 12:04:27;;;;;;;5.13;4.70;;;26.30;53.50;;;;;;5044166;28;20088;-38
2021/06/13 12:06:56;;;;;;;4.90;4.50;;;26.20;53.70;;;;;;5032882;28;20115;-41
2021/06/13 12:09:23;;;;;;;5.05;4.60;;;26.20;53.50;;;;;;5047947;28;20048;-42
2021/06/13 12:11:56;;;;;;;4.72;4.32;;;26.20;53.60;;;;;;5047971;28;20024;-41
2021/06/13 12:14:39;;;;;;;5.23;4.73;;;26.30;53.40;;;;;;5045098;28;20112;-41
2021/06/13 12:17:23;;;;;;;5.22;4.25;;;26.40;53.10;;;;;;5045991;28;20024;-40
2021/06/13 12:20:02;;;;;;;4.40;4.10;;;26.40;52.80;;;;;;4691838;28;10000246;-42
2021/06/13 12:27:35;;;;;;;3.90;3.60;;;26.50;52.50;;;;;;5051428;28;20037;-42
2021/06/13 12:30:11;;;;;;;4.22;3.85;;;26.50;52.20;;;;;;5043046;28;20037;-43
2021/06/13 12:32:37;;;;;;;3.30;3.10;;;26.60;52.10;;;;;;5031603;28;20556;-41
2021/06/13 12:35:14;;;;;;;3.65;3.42;;;26.60;52.20;;;;;;5051232;28;20056;-42
2021/06/13 12:37:58;;;;;;;3.85;3.65;;;26.40;52.80;;;;;;5044328;28;20069;-42
2021/06/13 12:40:25;;;;;;;3.80;3.60;;;26.40;52.40;;;;;;5049781;28;20025;-42
2021/06/13 12:42:52;;;;;;;3.97;3.78;;;26.50;52.40;;;;;;5048313;28;20090;-42
2021/06/13 12:45:18;;;;;;;4.25;3.85;;;26.50;52.30;;;;;;5048267;28;20029;-41
2021/06/13 12:47:46;;;;;;;3.47;3.28;;;26.40;52.80;;;;;;5030651;28;20028;-42
2021/06/13 12:50:21;;;;;;;3.92;3.70;;;26.50;52.60;;;;;;5029164;28;20033;-42
2021/06/13 12:52:49;;;;;;;3.95;3.65;;;26.40;52.60;;;;;;5044471;28;20527;-43
2021/06/13 12:55:15;;;;;;;3.50;3.30;;;26.50;52.40;;;;;;5032196;28;20078;-43
2021/06/13 12:57:41;;;;;;;3.83;3.40;;;26.70;52.20;;;;;;5047551;28;20037;-42
2021/06/13 13:00:08;;;;;;;3.20;3.10;;;26.50;52.70;;;;;;5059122;28;20102;-38
2021/06/13 13:02:34;;;;;;;3.38;3.17;;;26.40;53.40;;;;;;5046791;28;20585;-43